Time;durP1;ratioP1;P1;durP2;ratioP2;P2;SDS_P1;SDS_P2;PMS_P1;PMS_P2;Temp;Humidity;BMP_temperature;BMP_pressure;BME280_temperature;BME280_humidity;BME280_pressure;Samples;Min_cycle;Max_cycle;Signal;HPM_P1;HPM_P2
2022/10/15 00:00:26;;;;;;;11.13;9.73;;;12.60;99.90;;;;;;5071327;28;20019;-56
2022/10/15 00:02:52;;;;;;;15.23;10.80;;;12.50;99.90;;;;;;5054436;28;20037;-56
2022/10/15 00:05:18;;;;;;;16.42;9.93;;;12.60;99.90;;;;;;5054483;28;20102;-57
2022/10/15 00:07:44;;;;;;;24.00;10.95;;;12.60;99.90;;;;;;5054482;28;20025;-56
2022/10/15 00:10:09;;;;;;;14.13;10.13;;;12.60;99.90;;;;;;5054323;28;20060;-57
2022/10/15 00:12:35;;;;;;;19.80;10.23;;;12.50;99.90;;;;;;5074022;28;20111;-58
2022/10/15 00:15:01;;;;;;;15.00;9.48;;;12.50;99.90;;;;;;5074139;28;20067;-57
2022/10/15 00:17:26;;;;;;;15.00;10.27;;;12.50;99.90;;;;;;5074253;28;20090;-53
2022/10/15 00:19:52;;;;;;;16.30;10.43;;;12.50;99.90;;;;;;5074295;28;20554;-57
2022/10/15 00:22:18;;;;;;;19.58;11.27;;;12.50;99.90;;;;;;5056169;28;20477;-56
2022/10/15 00:24:43;;;;;;;24.90;11.43;;;12.50;99.90;;;;;;5054200;28;20542;-55
2022/10/15 00:27:09;;;;;;;18.88;12.55;;;12.50;99.90;;;;;;5054017;28;20025;-57
2022/10/15 00:29:35;;;;;;;12.63;10.65;;;12.40;99.90;;;;;;5054110;28;20349;-57
2022/10/15 00:32:00;;;;;;;17.17;10.52;;;12.40;99.90;;;;;;5068833;28;20147;-57
2022/10/15 00:34:26;;;;;;;22.95;11.25;;;12.40;99.90;;;;;;5073999;28;20055;-57
2022/10/15 00:36:52;;;;;;;13.15;9.93;;;12.40;99.90;;;;;;5073892;28;20029;-56
2022/10/15 00:39:17;;;;;;;17.77;10.93;;;12.50;99.90;;;;;;5072044;28;20021;-57
2022/10/15 00:41:44;;;;;;;24.35;11.52;;;12.40;99.90;;;;;;5061096;28;20025;-57
2022/10/15 00:44:24;;;;;;;25.75;11.75;;;12.40;99.90;;;;;;5053609;28;20052;-55
2022/10/15 00:47:02;;;;;;;19.92;11.57;;;12.40;99.90;;;;;;5053703;28;20021;-52
2022/10/15 00:49:34;;;;;;;23.30;12.18;;;12.40;99.90;;;;;;5053729;28;20025;-52
2022/10/15 00:52:02;;;;;;;20.00;12.27;;;12.40;99.90;;;;;;5067737;28;20038;-56
2022/10/15 00:54:33;;;;;;;15.43;10.95;;;12.40;99.90;;;;;;5072488;28;20025;-55
2022/10/15 00:56:59;;;;;;;14.43;10.73;;;12.40;99.90;;;;;;5072475;28;20436;-54
2022/10/15 00:59:27;;;;;;;16.17;10.70;;;12.50;99.90;;;;;;5073029;28;20052;-54
2022/10/15 01:01:54;;;;;;;12.90;10.77;;;12.50;99.90;;;;;;5072864;28;20024;-57
2022/10/15 01:04:21;;;;;;;18.80;12.35;;;12.50;99.90;;;;;;5053994;28;20083;-57
2022/10/15 01:06:46;;;;;;;17.55;12.05;;;12.50;99.90;;;;;;5052723;28;20029;-57
2022/10/15 01:09:12;;;;;;;17.55;11.80;;;12.40;99.90;;;;;;5053073;28;20060;-57
2022/10/15 01:11:46;;;;;;;16.23;11.98;;;12.40;99.90;;;;;;5053758;28;20013;-57
2022/10/15 01:14:34;;;;;;;21.88;12.13;;;12.40;99.90;;;;;;5058816;28;20021;-58
2022/10/15 01:17:05;;;;;;;19.15;12.35;;;12.40;99.90;;;;;;5051779;28;20511;-57
2022/10/15 01:20:16;;;;;;;22.13;12.98;;;12.50;99.90;;;;;;5053248;28;20079;-56
2022/10/15 01:23:19;;;;;;;21.02;13.75;;;12.40;99.90;;;;;;5051817;28;20434;-56
2022/10/15 01:26:04;;;;;;;16.75;13.55;;;12.40;99.90;;;;;;5061963;28;20021;-57
2022/10/15 01:28:47;;;;;;;24.08;12.70;;;12.40;99.90;;;;;;5073021;28;20048;-58
2022/10/15 01:31:33;;;;;;;15.38;12.25;;;12.50;99.90;;;;;;5072736;28;20470;-57
2022/10/15 01:34:51;;;;;;;20.80;13.65;;;12.50;99.90;;;;;;5072641;28;20118;-56
2022/10/15 01:37:30;;;;;;;17.23;12.68;;;12.50;99.90;;;;;;5071135;28;20371;-56
2022/10/15 01:40:11;;;;;;;20.35;11.88;;;12.40;99.90;;;;;;5058600;28;20036;-58
2022/10/15 01:42:52;;;;;;;18.58;11.68;;;12.40;99.90;;;;;;5052746;28;20112;-57
2022/10/15 01:45:56;;;;;;;16.98;11.27;;;12.40;99.90;;;;;;5052558;28;20031;-56
2022/10/15 01:48:26;;;;;;;23.10;10.77;;;12.40;99.90;;;;;;5052582;28;20591;-58
2022/10/15 01:50:56;;;;;;;15.20;12.60;;;12.50;99.90;;;;;;5051774;28;20112;-58
2022/10/15 01:53:25;;;;;;;16.77;14.18;;;12.50;99.90;;;;;;5053692;28;20031;-57
2022/10/15 01:56:03;;;;;;;35.88;14.98;;;12.40;99.90;;;;;;5072355;28;20024;-55
2022/10/15 01:58:30;;;;;;;30.20;16.73;;;12.40;99.90;;;;;;5072312;28;20043;-56
2022/10/15 02:00:57;;;;;;;29.33;16.15;;;12.40;99.90;;;;;;5072344;28;20020;-56
2022/10/15 02:03:23;;;;;;;20.58;15.77;;;12.40;99.90;;;;;;5072386;28;20021;-56
2022/10/15 02:05:58;;;;;;;21.80;16.02;;;12.40;99.90;;;;;;5072284;28;20051;-55
2022/10/15 02:08:42;;;;;;;26.95;16.23;;;12.40;99.90;;;;;;5061591;28;20227;-57
2022/10/15 02:11:17;;;;;;;24.05;15.82;;;12.50;99.90;;;;;;5052026;28;20048;-58
2022/10/15 02:14:10;;;;;;;19.95;15.13;;;12.40;99.90;;;;;;5051954;28;20029;-57
2022/10/15 02:16:48;;;;;;;20.20;15.25;;;12.40;99.90;;;;;;5052155;28;20036;-55
2022/10/15 02:19:17;;;;;;;23.25;16.05;;;12.40;99.90;;;;;;5052066;28;20364;-55
2022/10/15 02:21:57;;;;;;;19.05;15.70;;;12.40;99.90;;;;;;5050653;28;20025;-54
2022/10/15 02:24:28;;;;;;;22.90;16.92;;;12.40;99.90;;;;;;5051824;28;20074;-57
2022/10/15 02:26:58;;;;;;;25.30;17.52;;;12.40;99.90;;;;;;5051924;28;20025;-55
2022/10/15 02:29:27;;;;;;;26.23;16.27;;;12.40;99.90;;;;;;5051746;28;20028;-57
2022/10/15 02:31:55;;;;;;;28.23;17.92;;;12.40;99.90;;;;;;5051792;28;20025;-54
2022/10/15 02:34:25;;;;;;;23.92;17.83;;;12.40;99.90;;;;;;5051643;28;20488;-57
2022/10/15 02:36:52;;;;;;;23.73;17.90;;;12.40;99.90;;;;;;5054711;28;20009;-57
2022/10/15 02:39:23;;;;;;;29.88;18.75;;;12.50;99.90;;;;;;5051553;28;20041;-55
2022/10/15 02:41:49;;;;;;;34.55;21.33;;;12.40;99.90;;;;;;5051691;28;20513;-57
2022/10/15 02:44:15;;;;;;;28.67;20.13;;;12.40;99.90;;;;;;5051540;28;20464;-58
2022/10/15 02:46:41;;;;;;;25.45;20.20;;;12.40;99.90;;;;;;5051666;28;20025;-57
2022/10/15 02:49:06;;;;;;;21.08;17.33;;;12.50;99.90;;;;;;5051427;28;20361;-58
2022/10/15 02:51:34;;;;;;;23.02;18.48;;;12.50;99.90;;;;;;5052084;28;20036;-56
2022/10/15 02:54:01;;;;;;;28.10;14.35;;;12.50;99.90;;;;;;5071407;28;20035;-57
2022/10/15 02:56:27;;;;;;;23.35;15.38;;;12.60;99.90;;;;;;5071549;28;20029;-56
2022/10/15 02:58:53;;;;;;;21.50;15.20;;;12.70;99.90;;;;;;5069554;28;20030;-57
2022/10/15 03:01:18;;;;;;;17.10;13.70;;;12.60;99.90;;;;;;5051229;28;20029;-57
2022/10/15 03:03:44;;;;;;;17.30;13.88;;;12.60;99.90;;;;;;5051173;28;20496;-56
2022/10/15 03:06:10;;;;;;;30.73;15.25;;;12.50;99.90;;;;;;5051063;28;20589;-55
2022/10/15 03:08:36;;;;;;;18.67;14.57;;;12.50;99.90;;;;;;5051240;28;20025;-58
2022/10/15 03:11:02;;;;;;;22.10;14.02;;;12.50;99.90;;;;;;5049867;28;20036;-56
2022/10/15 03:13:28;;;;;;;17.27;13.80;;;12.50;99.90;;;;;;5051340;28;20037;-57
2022/10/15 03:15:54;;;;;;;17.30;12.80;;;12.50;99.90;;;;;;5051464;28;20082;-57
2022/10/15 03:18:20;;;;;;;16.00;13.65;;;12.50;99.90;;;;;;5051143;28;20068;-56
2022/10/15 03:20:56;;;;;;;14.35;11.85;;;12.50;99.90;;;;;;5049842;28;20026;-55
2022/10/15 03:23:22;;;;;;;22.25;11.35;;;12.50;99.90;;;;;;5051215;28;20025;-58
2022/10/15 03:25:48;;;;;;;20.08;12.32;;;12.70;99.90;;;;;;5051254;28;20025;-54
2022/10/15 03:28:13;;;;;;;15.85;11.88;;;12.70;99.90;;;;;;5068518;28;20533;-56
2022/10/15 03:30:39;;;;;;;25.13;13.40;;;12.70;99.90;;;;;;5071192;28;20033;-57
2022/10/15 03:33:05;;;;;;;20.35;12.77;;;12.70;99.90;;;;;;5070992;28;20020;-58
2022/10/15 03:35:30;;;;;;;17.75;13.02;;;12.60;99.90;;;;;;5051704;28;20057;-56
2022/10/15 03:37:56;;;;;;;18.67;13.40;;;12.60;99.90;;;;;;5050975;28;20036;-57
2022/10/15 03:40:22;;;;;;;22.83;13.25;;;12.50;99.90;;;;;;5051034;28;20025;-56
2022/10/15 03:42:51;;;;;;;16.50;12.88;;;12.50;99.90;;;;;;5059686;28;20036;-58
2022/10/15 03:45:18;;;;;;;21.27;14.98;;;12.50;99.90;;;;;;5070939;28;20065;-57
2022/10/15 03:47:43;;;;;;;19.58;13.50;;;12.50;99.90;;;;;;5069704;28;20093;-56
2022/10/15 03:50:09;;;;;;;22.52;14.70;;;12.50;99.90;;;;;;5070844;28;20025;-57
2022/10/15 03:52:38;;;;;;;19.58;14.88;;;12.50;99.90;;;;;;5070883;28;20032;-56
2022/10/15 03:55:04;;;;;;;22.95;14.48;;;12.50;99.90;;;;;;5053057;28;20029;-57
2022/10/15 03:57:30;;;;;;;17.90;13.30;;;12.50;99.90;;;;;;5050846;28;20029;-58
2022/10/15 03:59:56;;;;;;;20.40;13.43;;;12.50;99.90;;;;;;5050947;28;20017;-57
2022/10/15 04:02:23;;;;;;;19.40;14.45;;;12.50;99.90;;;;;;5050796;28;20033;-57
2022/10/15 04:04:52;;;;;;;17.08;14.00;;;12.50;99.90;;;;;;5050914;28;20013;-57
2022/10/15 04:07:18;;;;;;;16.38;13.23;;;12.50;99.90;;;;;;5050772;28;20021;-57
2022/10/15 04:09:44;;;;;;;17.40;12.88;;;12.50;99.90;;;;;;5066952;28;20048;-58
2022/10/15 04:12:09;;;;;;;20.45;13.45;;;12.50;99.90;;;;;;5070005;28;20021;-56
2022/10/15 04:14:35;;;;;;;17.60;12.85;;;12.50;99.90;;;;;;5072024;28;20020;-57
2022/10/15 04:17:01;;;;;;;24.90;14.15;;;12.50;99.90;;;;;;5074210;28;20092;-57
2022/10/15 04:19:27;;;;;;;17.02;13.93;;;12.50;99.90;;;;;;5074311;28;20032;-57
2022/10/15 04:21:52;;;;;;;19.00;14.30;;;12.50;99.90;;;;;;5074426;28;20082;-57
2022/10/15 04:24:18;;;;;;;16.70;12.30;;;12.50;99.90;;;;;;5058375;28;20067;-58
2022/10/15 04:26:44;;;;;;;15.15;12.18;;;12.50;99.90;;;;;;5054112;28;20020;-58
2022/10/15 04:29:09;;;;;;;16.65;11.75;;;12.50;99.90;;;;;;5052434;28;20057;-56
2022/10/15 04:31:36;;;;;;;14.43;11.73;;;12.50;99.90;;;;;;5053328;28;20044;-57
2022/10/15 04:34:03;;;;;;;13.73;11.90;;;12.50;99.90;;;;;;5053145;28;20021;-58
2022/10/15 04:36:28;;;;;;;18.23;12.05;;;12.50;99.90;;;;;;5053609;28;20048;-57
2022/10/15 04:38:54;;;;;;;15.63;12.27;;;12.50;99.90;;;;;;5066587;28;20048;-55
2022/10/15 04:41:20;;;;;;;17.45;11.60;;;12.50;99.90;;;;;;5073795;28;20025;-58
2022/10/15 04:43:45;;;;;;;18.20;11.50;;;12.50;99.90;;;;;;5072507;28;20070;-56
2022/10/15 04:46:11;;;;;;;18.88;13.50;;;12.50;99.90;;;;;;5073572;28;20074;-56
2022/10/15 04:48:38;;;;;;;16.05;12.15;;;12.50;99.90;;;;;;5073799;28;20033;-56
2022/10/15 04:51:07;;;;;;;15.77;11.90;;;12.50;99.90;;;;;;5073594;28;20028;-58
2022/10/15 04:53:33;;;;;;;20.50;12.15;;;12.50;99.90;;;;;;5060144;28;20120;-56
2022/10/15 04:56:04;;;;;;;15.40;11.95;;;12.50;99.90;;;;;;5053521;28;20477;-58
2022/10/15 04:58:31;;;;;;;15.85;11.70;;;12.50;99.90;;;;;;5053567;28;20021;-56
2022/10/15 05:01:06;;;;;;;16.23;11.95;;;12.50;99.90;;;;;;5053391;28;20078;-56
2022/10/15 05:03:33;;;;;;;13.48;10.73;;;12.50;99.90;;;;;;5053471;28;20083;-57
2022/10/15 05:06:04;;;;;;;13.32;10.75;;;12.50;99.90;;;;;;5053323;28;20029;-58
2022/10/15 05:08:31;;;;;;;13.90;10.43;;;12.50;99.90;;;;;;5060676;28;20028;-58
2022/10/15 05:11:05;;;;;;;16.52;12.80;;;12.50;99.90;;;;;;5073318;28;20029;-58
2022/10/15 05:13:31;;;;;;;18.60;14.48;;;12.50;99.90;;;;;;5073159;28;20021;-58
2022/10/15 05:16:27;;;;;;;17.00;12.05;;;12.50;99.90;;;;;;5073149;28;20069;-58
2022/10/15 05:18:59;;;;;;;16.75;12.75;;;12.50;99.90;;;;;;5072976;28;20024;-58
2022/10/15 05:21:24;;;;;;;17.00;12.23;;;12.50;99.90;;;;;;5073076;28;20054;-57
2022/10/15 05:23:50;;;;;;;12.82;11.00;;;12.60;99.90;;;;;;5060759;28;20066;-57
2022/10/15 05:26:19;;;;;;;15.60;11.30;;;12.60;99.90;;;;;;5051820;28;20030;-57
2022/10/15 05:28:44;;;;;;;18.00;10.90;;;12.60;99.90;;;;;;5053021;28;20033;-57
2022/10/15 05:31:13;;;;;;;21.38;10.02;;;12.60;99.90;;;;;;5052785;28;20036;-56
2022/10/15 05:33:39;;;;;;;13.45;10.50;;;12.60;99.90;;;;;;5052799;28;20059;-57
2022/10/15 05:36:25;;;;;;;10.98;9.65;;;12.60;99.90;;;;;;5052645;28;20070;-55
2022/10/15 05:38:59;;;;;;;15.18;12.25;;;12.60;99.90;;;;;;5067019;28;20028;-56
2022/10/15 05:41:26;;;;;;;15.00;10.77;;;12.60;99.90;;;;;;5072806;28;20066;-58
2022/10/15 05:43:53;;;;;;;23.63;11.32;;;12.60;99.90;;;;;;5072701;28;20035;-58
2022/10/15 05:46:19;;;;;;;14.13;11.07;;;12.70;99.90;;;;;;5072406;28;20047;-58
2022/10/15 05:48:49;;;;;;;20.75;12.45;;;12.60;99.90;;;;;;5071328;28;20021;-57
2022/10/15 05:51:15;;;;;;;13.93;11.13;;;12.60;99.90;;;;;;5072312;28;20013;-58
2022/10/15 05:53:42;;;;;;;17.77;11.15;;;12.60;99.90;;;;;;5056974;28;20380;-57
2022/10/15 05:56:08;;;;;;;15.57;11.02;;;12.60;99.90;;;;;;5052450;28;20067;-57
2022/10/15 05:58:35;;;;;;;15.38;11.75;;;12.60;99.90;;;;;;5052365;28;20017;-58
2022/10/15 06:01:17;;;;;;;15.35;11.68;;;12.60;99.90;;;;;;5051970;28;20100;-58
2022/10/15 06:03:43;;;;;;;17.67;12.50;;;12.60;99.90;;;;;;5065618;28;20024;-57
2022/10/15 06:06:17;;;;;;;14.77;12.07;;;12.60;99.90;;;;;;5071542;28;20020;-58
2022/10/15 06:08:43;;;;;;;17.63;13.05;;;12.60;99.90;;;;;;5071112;28;20056;-57
2022/10/15 06:11:09;;;;;;;14.70;12.05;;;12.60;99.90;;;;;;5071074;28;20032;-58
2022/10/15 06:13:36;;;;;;;12.88;11.00;;;12.60;99.90;;;;;;5071584;28;20490;-57
2022/10/15 06:16:03;;;;;;;15.18;11.82;;;12.60;99.90;;;;;;5070876;28;20016;-58
2022/10/15 06:18:28;;;;;;;13.95;11.13;;;12.60;99.90;;;;;;5071498;28;20051;-58
2022/10/15 06:20:54;;;;;;;18.08;12.10;;;12.60;99.90;;;;;;5071450;28;20059;-57
2022/10/15 06:23:20;;;;;;;13.98;11.10;;;12.60;99.90;;;;;;5054306;28;20041;-58
2022/10/15 06:25:46;;;;;;;12.88;10.07;;;12.60;99.90;;;;;;5050749;28;20021;-58
2022/10/15 06:28:12;;;;;;;14.65;11.02;;;12.70;99.90;;;;;;5051683;28;20025;-57
2022/10/15 06:30:37;;;;;;;12.48;10.27;;;12.70;99.90;;;;;;5051821;28;20025;-57
2022/10/15 06:33:03;;;;;;;18.92;11.00;;;12.70;99.90;;;;;;5051496;28;20048;-58
2022/10/15 06:35:34;;;;;;;12.02;10.27;;;12.70;99.90;;;;;;5051781;28;20388;-58
2022/10/15 06:38:03;;;;;;;10.55;9.45;;;12.70;99.90;;;;;;5066758;28;20059;-57
2022/10/15 06:40:29;;;;;;;15.60;10.55;;;12.70;99.90;;;;;;5071733;28;20494;-58
2022/10/15 06:43:01;;;;;;;12.95;9.00;;;12.80;99.90;;;;;;5070163;28;20426;-57
2022/10/15 06:45:27;;;;;;;13.15;9.70;;;12.70;99.90;;;;;;5071639;28;20032;-58
2022/10/15 06:47:52;;;;;;;13.00;9.48;;;12.80;99.90;;;;;;5071475;28;20029;-58
2022/10/15 06:50:18;;;;;;;14.00;10.10;;;12.80;99.90;;;;;;5071309;28;20036;-59
2022/10/15 06:52:43;;;;;;;19.10;10.85;;;12.90;99.90;;;;;;5055622;28;20032;-58
2022/10/15 06:55:09;;;;;;;21.65;15.65;;;12.90;99.90;;;;;;5050085;28;20396;-55
2022/10/15 06:57:35;;;;;;;16.65;11.18;;;12.90;99.90;;;;;;5051396;28;20025;-57
2022/10/15 07:00:00;;;;;;;14.20;11.02;;;13.00;99.90;;;;;;5051065;28;20471;-57
2022/10/15 07:02:26;;;;;;;38.78;20.90;;;13.10;99.90;;;;;;5051033;28;20029;-57
2022/10/15 07:04:51;;;;;;;666.47;387.10;;;13.10;99.90;;;;;;5051263;28;20021;-54
2022/10/15 07:07:17;;;;;;;26.50;20.48;;;13.20;99.90;;;;;;5051144;28;20040;-58
2022/10/15 07:09:45;;;;;;;12.65;10.07;;;13.20;99.90;;;;;;5051068;28;20052;-56
2022/10/15 07:12:11;;;;;;;13.45;10.40;;;13.30;99.90;;;;;;5058004;28;20471;-56
2022/10/15 07:14:36;;;;;;;11.60;9.45;;;13.50;99.90;;;;;;5071273;28;20172;-58
2022/10/15 07:17:02;;;;;;;12.57;9.18;;;13.50;99.90;;;;;;5071136;28;20112;-55
2022/10/15 07:19:28;;;;;;;20.77;12.85;;;13.50;99.90;;;;;;5071272;28;20063;-54
2022/10/15 07:21:54;;;;;;;12.38;8.55;;;13.50;99.90;;;;;;5071276;28;20048;-57
2022/10/15 07:24:19;;;;;;;11.88;8.52;;;13.60;99.90;;;;;;5070975;28;20024;-57
2022/10/15 07:26:48;;;;;;;11.98;9.00;;;13.60;99.90;;;;;;5065066;28;20338;-58
2022/10/15 07:29:14;;;;;;;11.77;10.02;;;13.60;99.90;;;;;;5050000;28;20023;-58
2022/10/15 07:31:39;;;;;;;13.27;9.70;;;13.50;99.90;;;;;;5049958;28;20379;-57
2022/10/15 07:34:05;;;;;;;16.00;12.18;;;13.50;99.90;;;;;;5049748;28;20033;-57
2022/10/15 07:36:31;;;;;;;11.15;10.02;;;13.60;99.90;;;;;;5049903;28;20025;-55
2022/10/15 07:38:57;;;;;;;18.00;11.48;;;13.50;99.90;;;;;;5049641;28;20018;-56
2022/10/15 07:41:22;;;;;;;13.27;8.95;;;13.70;99.90;;;;;;5052258;28;20035;-55
2022/10/15 07:43:51;;;;;;;12.48;8.85;;;13.80;99.90;;;;;;5069701;28;20033;-55
2022/10/15 07:46:17;;;;;;;11.30;8.80;;;13.90;99.90;;;;;;5069457;28;20106;-56
2022/10/15 07:48:42;;;;;;;12.05;9.52;;;13.80;99.90;;;;;;5069017;28;20050;-57
2022/10/15 07:51:10;;;;;;;12.43;10.35;;;13.70;99.90;;;;;;5071512;28;20545;-55
2022/10/15 07:53:36;;;;;;;11.05;8.23;;;13.70;99.90;;;;;;5070972;28;20032;-57
2022/10/15 07:56:06;;;;;;;12.65;8.05;;;13.80;99.90;;;;;;5065195;28;20480;-55
2022/10/15 07:58:37;;;;;;;8.93;7.18;;;13.90;99.90;;;;;;5068495;28;20056;-58
2022/10/15 08:01:07;;;;;;;7.88;6.68;;;14.00;99.90;;;;;;5070947;28;20025;-55
2022/10/15 08:03:32;;;;;;;12.63;7.55;;;14.10;99.90;;;;;;5072950;28;20093;-56
2022/10/15 08:06:04;;;;;;;9.45;8.25;;;14.10;99.90;;;;;;5071605;28;20426;-56
2022/10/15 08:08:30;;;;;;;10.73;7.53;;;14.00;99.90;;;;;;5073142;28;20039;-56
2022/10/15 08:10:56;;;;;;;14.20;7.07;;;14.10;99.90;;;;;;5072931;28;20028;-56
2022/10/15 08:13:23;;;;;;;10.95;6.65;;;14.20;99.90;;;;;;5055115;28;20029;-54
2022/10/15 08:15:48;;;;;;;8.57;7.57;;;14.20;99.90;;;;;;5052868;28;20021;-57
2022/10/15 08:18:14;;;;;;;9.40;7.63;;;14.00;99.90;;;;;;5053116;28;20283;-57
2022/10/15 08:20:41;;;;;;;8.73;7.40;;;14.00;99.90;;;;;;5053014;28;20024;-57
2022/10/15 08:23:14;;;;;;;8.10;6.05;;;14.00;99.90;;;;;;5053012;28;20025;-55
2022/10/15 08:25:40;;;;;;;8.48;6.47;;;14.10;99.90;;;;;;5052780;28;20022;-55
2022/10/15 08:28:06;;;;;;;8.00;5.85;;;14.30;99.90;;;;;;5070200;28;20506;-56
2022/10/15 08:30:32;;;;;;;9.80;5.82;;;14.30;99.90;;;;;;5073092;28;20103;-57
2022/10/15 08:32:57;;;;;;;6.65;4.88;;;14.30;99.90;;;;;;5072568;28;20113;-56
2022/10/15 08:35:23;;;;;;;7.90;5.63;;;14.30;99.90;;;;;;5072798;28;20059;-56
2022/10/15 08:37:53;;;;;;;5.53;3.70;;;14.50;99.90;;;;;;5072579;28;20028;-57
2022/10/15 08:40:20;;;;;;;11.13;4.53;;;14.40;99.90;;;;;;5072363;28;20027;-57
2022/10/15 08:42:46;;;;;;;7.43;3.63;;;14.40;99.90;;;;;;5055294;28;20117;-55
2022/10/15 08:45:18;;;;;;;4.45;3.53;;;14.40;99.90;;;;;;5056908;28;20021;-56
2022/10/15 08:47:51;;;;;;;3.40;2.58;;;14.40;99.90;;;;;;5071056;28;20108;-57
2022/10/15 08:50:20;;;;;;;6.35;3.28;;;14.60;99.90;;;;;;5072022;28;20027;-56
2022/10/15 08:52:48;;;;;;;2.40;2.20;;;14.50;99.90;;;;;;5072380;28;20094;-56
2022/10/15 08:55:17;;;;;;;3.30;2.08;;;14.60;99.90;;;;;;5072402;28;20043;-57
2022/10/15 08:57:57;;;;;;;2.13;1.88;;;14.70;99.90;;;;;;5063032;28;20025;-57
2022/10/15 09:00:24;;;;;;;2.83;2.15;;;14.70;99.90;;;;;;5071794;28;20029;-53
2022/10/15 09:03:08;;;;;;;4.82;2.17;;;14.80;99.90;;;;;;5072126;28;20028;-55
2022/10/15 09:05:49;;;;;;;4.25;1.98;;;14.80;99.90;;;;;;5071184;28;20029;-55
2022/10/15 09:08:39;;;;;;;1.75;1.65;;;14.90;99.90;;;;;;5071544;28;20077;-55
2022/10/15 09:11:27;;;;;;;4.97;2.53;;;14.90;99.90;;;;;;5070790;28;20484;-56
2022/10/15 09:13:53;;;;;;;3.13;2.55;;;15.00;99.90;;;;;;5058865;28;20024;-58
2022/10/15 09:16:24;;;;;;;2.95;2.35;;;14.90;99.90;;;;;;5052190;28;20116;-55
2022/10/15 09:18:51;;;;;;;2.63;2.40;;;14.90;99.90;;;;;;5051886;28;20017;-57
2022/10/15 09:21:19;;;;;;;2.13;1.80;;;14.90;99.90;;;;;;5052195;28;20087;-55
2022/10/15 09:23:45;;;;;;;4.05;2.10;;;14.90;99.90;;;;;;5051480;28;20023;-56
2022/10/15 09:26:26;;;;;;;7.78;2.17;;;15.00;99.90;;;;;;5072343;28;20113;-55
2022/10/15 09:29:25;;;;;;;2.72;2.30;;;15.10;99.90;;;;;;5075204;28;20016;-58
2022/10/15 09:32:16;;;;;;;5.95;2.95;;;15.00;99.90;;;;;;5066583;28;20029;-57
2022/10/15 09:34:48;;;;;;;3.05;2.00;;;15.20;99.90;;;;;;5078871;28;20386;-58
2022/10/15 09:37:34;;;;;;;5.20;2.20;;;15.10;99.90;;;;;;5063051;28;20040;-53
2022/10/15 09:40:19;;;;;;;3.30;1.85;;;15.10;99.90;;;;;;5067176;28;20017;-53
2022/10/15 09:42:45;;;;;;;2.95;1.70;;;15.10;99.90;;;;;;5064897;28;20021;-53
2022/10/15 09:45:13;;;;;;;1.52;1.38;;;15.20;99.90;;;;;;5084692;28;20429;-54
2022/10/15 09:47:41;;;;;;;5.55;1.70;;;15.00;99.90;;;;;;5055813;28;20037;-54
2022/10/15 09:50:10;;;;;;;3.08;1.58;;;15.00;99.90;;;;;;5052450;28;20033;-52
2022/10/15 09:52:39;;;;;;;1.10;1.10;;;15.00;99.90;;;;;;5052610;28;20618;-51
2022/10/15 09:55:31;;;;;;;1.67;1.40;;;15.00;99.90;;;;;;5050420;28;20056;-56
2022/10/15 09:58:03;;;;;;;2.85;2.00;;;15.00;99.90;;;;;;5032257;28;20029;-54
2022/10/15 10:01:03;;;;;;;3.60;1.30;;;15.00;99.90;;;;;;5041986;28;20032;-53
2022/10/15 10:03:31;;;;;;;2.88;1.40;;;15.10;99.90;;;;;;5049908;28;20102;-55
2022/10/15 10:06:10;;;;;;;1.42;1.33;;;15.10;99.90;;;;;;5042513;28;20040;-57
2022/10/15 10:08:59;;;;;;;4.20;1.52;;;15.20;99.90;;;;;;5041094;28;20082;-55
2022/10/15 10:11:44;;;;;;;2.95;1.33;;;15.40;99.90;;;;;;5041911;28;20123;-56
2022/10/15 10:14:34;;;;;;;5.32;1.23;;;15.40;99.90;;;;;;5041410;28;20476;-57
2022/10/15 10:17:27;;;;;;;2.85;1.25;;;15.40;99.90;;;;;;5041600;28;20060;-56
2022/10/15 10:20:13;;;;;;;2.97;1.30;;;15.30;99.90;;;;;;5041353;28;20033;-57
2022/10/15 10:22:48;;;;;;;1.30;1.20;;;15.40;99.90;;;;;;5041288;28;20419;-60
2022/10/15 10:25:25;;;;;;;2.28;1.35;;;15.50;99.90;;;;;;5049282;28;20578;-58
2022/10/15 10:27:56;;;;;;;9.70;1.23;;;15.50;99.90;;;;;;5051502;28;20031;-58
2022/10/15 10:30:22;;;;;;;1.10;1.00;;;15.50;99.90;;;;;;5051116;28;20028;-53
2022/10/15 10:32:53;;;;;;;7.30;1.10;;;15.60;99.90;;;;;;5051602;28;20028;-54
2022/10/15 10:35:22;;;;;;;4.32;1.17;;;15.60;99.90;;;;;;5050340;28;20079;-52
2022/10/15 10:37:48;;;;;;;4.10;0.90;;;15.60;99.90;;;;;;5065317;28;20024;-56
2022/10/15 10:40:34;;;;;;;4.75;1.23;;;15.80;99.90;;;;;;5069410;28;20111;-59
2022/10/15 10:43:09;;;;;;;2.75;1.92;;;15.70;99.90;;;;;;5041463;28;20021;-57
2022/10/15 10:45:35;;;;;;;2.38;1.73;;;15.70;99.90;;;;;;5039485;28;20590;-59
2022/10/15 10:48:25;;;;;;;2.08;1.48;;;15.80;99.90;;;;;;5040535;28;20120;-59
2022/10/15 10:51:25;;;;;;;1.55;1.40;;;15.80;99.90;;;;;;5040900;28;20036;-59
2022/10/15 10:54:04;;;;;;;1.58;0.90;;;16.00;99.90;;;;;;5042055;28;20025;-59
2022/10/15 10:56:36;;;;;;;1.10;0.80;;;16.20;99.90;;;;;;5041015;28;20017;-58
2022/10/15 10:59:43;;;;;;;1.42;1.33;;;16.50;99.90;;;;;;5040702;28;20021;-57
2022/10/15 11:02:12;;;;;;;1.40;0.70;;;16.60;99.90;;;;;;5041101;28;20045;-58
2022/10/15 11:04:38;;;;;;;5.15;0.90;;;17.40;99.90;;;;;;5045053;28;20512;-58
2022/10/15 11:07:43;;;;;;;1.73;1.40;;;18.20;99.90;;;;;;5038778;28;20490;-57
2022/10/15 11:10:22;;;;;;;1.85;0.80;;;17.90;99.90;;;;;;5046965;28;20079;-58
2022/10/15 11:12:51;;;;;;;1.73;0.70;;;18.10;99.90;;;;;;5052392;28;20083;-56
2022/10/15 11:15:39;;;;;;;2.33;0.68;;;17.90;99.90;;;;;;5039434;28;20041;-58
2022/10/15 11:18:32;;;;;;;1.23;0.80;;;17.80;99.90;;;;;;5041700;28;20021;-56
2022/10/15 11:21:28;;;;;;;0.93;0.77;;;17.80;99.90;;;;;;5040732;28;20507;-57
2022/10/15 11:24:18;;;;;;;2.17;0.93;;;18.10;99.90;;;;;;5042088;28;20037;-56
2022/10/15 11:27:13;;;;;;;1.13;0.63;;;18.20;99.90;;;;;;5043715;28;20039;-57
2022/10/15 11:30:00;;;;;;;0.95;0.60;;;18.90;99.90;;;;;;5043714;28;20029;-56
2022/10/15 11:32:50;;;;;;;10.23;1.98;;;19.70;99.90;;;;;;5046635;28;20063;-57
2022/10/15 11:35:16;;;;;;;3.67;0.60;;;21.50;99.90;;;;;;5041704;28;20040;-57
2022/10/15 11:38:40;;;;;;;0.90;0.65;;;21.20;99.90;;;;;;5043307;28;20025;-56
2022/10/15 11:41:33;;;;;;;1.95;0.75;;;20.40;99.90;;;;;;5042021;28;20361;-56
2022/10/15 11:44:01;;;;;;;1.15;0.60;;;20.60;99.90;;;;;;5044918;28;20041;-56
2022/10/15 11:46:35;;;;;;;1.13;0.73;;;20.00;99.90;;;;;;5042261;28;20542;-56
2022/10/15 11:49:28;;;;;;;2.58;0.50;;;19.00;99.90;;;;;;5042784;28;20461;-57
2022/10/15 11:52:08;;;;;;;1.17;0.70;;;19.10;99.90;;;;;;5044580;28;20396;-56
2022/10/15 11:54:38;;;;;;;0.85;0.80;;;18.90;99.90;;;;;;5044725;28;20033;-57
2022/10/15 11:57:07;;;;;;;8.48;1.08;;;18.50;99.90;;;;;;5063722;28;20507;-57
2022/10/15 12:00:31;;;;;;;0.98;0.88;;;18.10;99.90;;;;;;5064166;28;20029;-56
2022/10/15 12:03:10;;;;;;;0.80;0.60;;;18.10;99.90;;;;;;5060267;28;20075;-55
2022/10/15 12:05:45;;;;;;;2.05;1.00;;;18.50;99.90;;;;;;5061428;28;20044;-58
2022/10/15 12:08:12;;;;;;;1.98;1.05;;;18.80;99.90;;;;;;5047667;28;20037;-57
2022/10/15 12:11:07;;;;;;;2.00;0.60;;;18.70;99.90;;;;;;5055717;28;20111;-55
2022/10/15 12:13:58;;;;;;;1.65;0.90;;;18.70;99.90;;;;;;5043656;28;20025;-56
2022/10/15 12:16:42;;;;;;;3.40;0.90;;;18.60;99.90;;;;;;5055007;28;20588;-57
2022/10/15 12:19:19;;;;;;;0.75;0.75;;;18.60;99.90;;;;;;5054672;28;20056;-57
2022/10/15 12:21:54;;;;;;;2.58;0.93;;;18.50;99.90;;;;;;5063108;28;20021;-57
2022/10/15 12:24:51;;;;;;;0.82;0.70;;;18.80;99.90;;;;;;5061079;28;20039;-56
2022/10/15 12:27:24;;;;;;;5.50;0.95;;;19.80;99.90;;;;;;5043160;28;20093;-56
2022/10/15 12:29:59;;;;;;;0.55;0.55;;;20.20;99.90;;;;;;5043081;28;20044;-57
2022/10/15 12:32:25;;;;;;;0.80;0.68;;;20.90;99.90;;;;;;5042924;28;20119;-58
2022/10/15 12:34:55;;;;;;;2.30;0.88;;;20.90;99.90;;;;;;5042327;28;20070;-58
2022/10/15 12:37:24;;;;;;;0.55;0.55;;;22.50;99.90;;;;;;5043608;28;20160;-57
2022/10/15 12:40:02;;;;;;;3.05;0.80;;;24.90;97.90;;;;;;5043324;28;20024;-58
2022/10/15 12:42:30;;;;;;;1.38;0.88;;;24.10;95.50;;;;;;5043610;28;20036;-58
2022/10/15 12:44:58;;;;;;;0.85;0.60;;;23.90;95.50;;;;;;5041106;28;20032;-57
2022/10/15 12:47:48;;;;;;;1.75;0.63;;;23.50;96.40;;;;;;5042640;28;20044;-55
2022/10/15 12:50:20;;;;;;;4.45;0.70;;;22.00;97.70;;;;;;5045965;28;20057;-55
2022/10/15 12:53:24;;;;;;;0.60;0.60;;;21.70;99.60;;;;;;5044561;28;20027;-58
2022/10/15 12:56:12;;;;;;;4.88;1.08;;;21.80;99.20;;;;;;5053487;28;20036;-55
2022/10/15 12:58:59;;;;;;;3.88;1.00;;;20.80;99.90;;;;;;5042512;28;20047;-56
2022/10/15 13:01:49;;;;;;;3.30;1.08;;;21.20;99.90;;;;;;5041073;28;20063;-55